Knoxville, TN (37923)

10:00 PM EDT on June 02, 2015 (GMT -0400)
Rosewood - WA4TEM | | Change Station
CLOSE
Current Station
Personal Weather Station
Location: Knoxville, TN
Elevation: 1152 ft
Nearby Weather Stations

Elev 1152 ft 35.94 °N, 84.11 °W | Updated 14 minutes ago

Thunderstorm
Thunderstorm
63.9 °F
Feels Like 63.9 °F
N
1.7
Wind Variable Wind from North

Today
High -- | Low -- °F
--% Chance of Precip.
Yesterday
High -- | Low -- °F
Precip. -- in
6:20 AM 8:48 PM
Full, 100% visible
Pressure 29.99 in
Visibility 10.0 miles
Clouds Clear
Dew Point 63 °F
Humidity 96%
Rainfall 0.12 in
Snow Depth Not available.
UV 0 out of 12
Pollen 4.40 out of 12
Air Quality Not available.
Flu Activity Sporadic
METAR KOQT 030153Z AUTO 00000KT 10SM CLR 21/15 A3002 RMK AO2 SLP154 T02060150

More Conditions Fewer Conditions

Pressure 29.99 in
Visibility 10.0 miles
Clouds Clear
Dew Point 63 °F
Humidity 96%
Rainfall 0.12 in
Snow Depth Not available.
UV 0 out of 12
Pollen 4.40 out of 12
Air Quality Not available.
Flu Activity Sporadic
METAR KOQT 030153Z AUTO 00000KT 10SM CLR 21/15 A3002 RMK AO2 SLP154 T02060150

More Conditions Fewer Conditions

10-Day Weather Forecast

×

Almanac

Astronomy

Jun. 02, 2015 Rise Set
Actual Time
Civil Twilight
Nautical Twilight
Astronomical Twilight
Moon
Length of Visible Light
Length of Day
Tomorrow will be .
, % of the Moon is Illuminated

Today's Extremes

State Highs State Lows

Community

WunderPhotos

Upload Photos

1,826,103 photos uploaded!

WunderBlogs® & News

Nearby

Air Quality

  Air Quality AQ Index Pollutant
Not available.

Snow Depth

Station Depth Elevation

Earthquake Activity

City Distance Mag. Time & Date
Minimum magnitude displayed is 2.5.

Coastal Water Temperatures

Place Temperature

Stations

Nearby Weather Stations

Station Location Temp. Windchill Dew Point Humidity Wind Precip. Elev Updated Type